sensor_id;sensor_type;location;lat;lon;timestamp;temperature;humidity
285;DHT22;127;48.770;9.212;2022-12-05T00:01:40;2.30;1.00
285;DHT22;127;48.770;9.212;2022-12-05T00:04:13;2.40;1.00
285;DHT22;127;48.770;9.212;2022-12-05T00:06:44;2.40;1.00
285;DHT22;127;48.770;9.212;2022-12-05T00:09:17;2.30;99.90
285;DHT22;127;48.770;9.212;2022-12-05T00:11:46;2.30;99.90
285;DHT22;127;48.770;9.212;2022-12-05T00:14:16;2.10;99.90
285;DHT22;127;48.770;9.212;2022-12-05T00:16:45;2.20;1.00
285;DHT22;127;48.770;9.212;2022-12-05T00:19:14;2.20;1.00
285;DHT22;127;48.770;9.212;2022-12-05T00:21:44;2.20;99.90
285;DHT22;127;48.770;9.212;2022-12-05T00:24:14;2.30;99.90
285;DHT22;127;48.770;9.212;2022-12-05T00:26:47;2.40;99.90
285;DHT22;127;48.770;9.212;2022-12-05T00:29:15;2.30;99.90
285;DHT22;127;48.770;9.212;2022-12-05T00:31:44;2.40;99.90
285;DHT22;127;48.770;9.212;2022-12-05T00:34:13;2.50;99.90
285;DHT22;127;48.770;9.212;2022-12-05T00:36:43;2.40;99.90
285;DHT22;127;48.770;9.212;2022-12-05T00:39:12;2.40;99.90
285;DHT22;127;48.770;9.212;2022-12-05T00:41:42;2.40;99.90
285;DHT22;127;48.770;9.212;2022-12-05T00:44:16;2.50;99.90
285;DHT22;127;48.770;9.212;2022-12-05T00:46:45;2.40;99.90
285;DHT22;127;48.770;9.212;2022-12-05T00:49:14;2.30;99.90
285;DHT22;127;48.770;9.212;2022-12-05T00:51:44;2.40;99.90
285;DHT22;127;48.770;9.212;2022-12-05T00:54:15;2.40;99.90
285;DHT22;127;48.770;9.212;2022-12-05T00:56:44;2.40;99.90
285;DHT22;127;48.770;9.212;2022-12-05T00:59:18;2.20;99.90
285;DHT22;127;48.770;9.212;2022-12-05T01:01:48;2.30;99.90
285;DHT22;127;48.770;9.212;2022-12-05T01:04:19;2.20;99.90
285;DHT22;127;48.770;9.212;2022-12-05T01:06:48;2.20;99.90
285;DHT22;127;48.770;9.212;2022-12-05T01:09:19;2.20;99.90
285;DHT22;127;48.770;9.212;2022-12-05T01:11:48;2.20;99.90
285;DHT22;127;48.770;9.212;2022-12-05T01:14:22;2.10;99.90
285;DHT22;127;48.770;9.212;2022-12-05T01:17:03;2.20;99.90
285;DHT22;127;48.770;9.212;2022-12-05T01:19:32;2.00;99.90
285;DHT22;127;48.770;9.212;2022-12-05T01:22:02;2.10;99.90
285;DHT22;127;48.770;9.212;2022-12-05T01:24:32;2.00;99.90
285;DHT22;127;48.770;9.212;2022-12-05T01:27:01;2.10;1.00
285;DHT22;127;48.770;9.212;2022-12-05T01:29:32;2.10;1.00
285;DHT22;127;48.770;9.212;2022-12-05T01:32:03;2.20;1.00
285;DHT22;127;48.770;9.212;2022-12-05T01:34:31;2.20;99.90
285;DHT22;127;48.770;9.212;2022-12-05T01:37:00;2.20;99.90
285;DHT22;127;48.770;9.212;2022-12-05T01:39:29;2.30;99.90
285;DHT22;127;48.770;9.212;2022-12-05T01:41:57;2.30;99.90
285;DHT22;127;48.770;9.212;2022-12-05T01:47:29;2.50;99.90
285;DHT22;127;48.770;9.212;2022-12-05T01:50:02;2.40;99.90
285;DHT22;127;48.770;9.212;2022-12-05T01:52:32;2.30;99.90
285;DHT22;127;48.770;9.212;2022-12-05T01:55:09;2.40;99.90
285;DHT22;127;48.770;9.212;2022-12-05T01:57:39;2.30;99.90
285;DHT22;127;48.770;9.212;2022-12-05T02:00:16;2.30;99.90
285;DHT22;127;48.770;9.212;2022-12-05T02:02:51;2.30;99.90
285;DHT22;127;48.770;9.212;2022-12-05T02:05:23;2.20;99.90
285;DHT22;127;48.770;9.212;2022-12-05T02:07:53;2.20;99.90
285;DHT22;127;48.770;9.212;2022-12-05T02:10:22;2.20;99.90
285;DHT22;127;48.770;9.212;2022-12-05T02:12:51;2.20;99.90
285;DHT22;127;48.770;9.212;2022-12-05T02:15:37;2.20;1.00
285;DHT22;127;48.770;9.212;2022-12-05T02:18:21;2.20;1.00
285;DHT22;127;48.770;9.212;2022-12-05T02:21:05;2.20;1.00
285;DHT22;127;48.770;9.212;2022-12-05T02:24:02;2.20;1.00
285;DHT22;127;48.770;9.212;2022-12-05T02:26:55;2.10;1.00
285;DHT22;127;48.770;9.212;2022-12-05T02:32:35;2.10;1.00
285;DHT22;127;48.770;9.212;2022-12-05T02:35:14;2.10;1.00
285;DHT22;127;48.770;9.212;2022-12-05T02:37:49;2.10;1.00
285;DHT22;127;48.770;9.212;2022-12-05T02:40:24;2.00;1.00
285;DHT22;127;48.770;9.212;2022-12-05T02:42:59;2.00;1.00
285;DHT22;127;48.770;9.212;2022-12-05T02:45:33;2.10;1.00
285;DHT22;127;48.770;9.212;2022-12-05T02:48:04;2.10;1.00
285;DHT22;127;48.770;9.212;2022-12-05T02:50:36;2.10;1.00
285;DHT22;127;48.770;9.212;2022-12-05T02:53:08;2.10;1.00
285;DHT22;127;48.770;9.212;2022-12-05T02:55:39;2.20;1.00
285;DHT22;127;48.770;9.212;2022-12-05T02:58:13;2.20;1.00
285;DHT22;127;48.770;9.212;2022-12-05T03:00:48;2.20;1.00
285;DHT22;127;48.770;9.212;2022-12-05T03:03:19;2.20;1.00
285;DHT22;127;48.770;9.212;2022-12-05T03:05:56;2.20;1.00
285;DHT22;127;48.770;9.212;2022-12-05T03:08:30;2.30;1.00
285;DHT22;127;48.770;9.212;2022-12-05T03:11:01;2.40;1.00
285;DHT22;127;48.770;9.212;2022-12-05T03:13:35;2.30;1.00
285;DHT22;127;48.770;9.212;2022-12-05T03:16:11;2.30;1.00
285;DHT22;127;48.770;9.212;2022-12-05T03:18:44;2.40;1.00
285;DHT22;127;48.770;9.212;2022-12-05T03:21:21;2.40;1.00
285;DHT22;127;48.770;9.212;2022-12-05T03:23:55;2.40;1.00
285;DHT22;127;48.770;9.212;2022-12-05T03:26:43;2.30;1.00
285;DHT22;127;48.770;9.212;2022-12-05T03:29:24;2.30;1.00
285;DHT22;127;48.770;9.212;2022-12-05T03:32:04;2.30;1.00
285;DHT22;127;48.770;9.212;2022-12-05T03:34:44;2.40;1.00
285;DHT22;127;48.770;9.212;2022-12-05T03:37:21;2.60;1.00
285;DHT22;127;48.770;9.212;2022-12-05T03:40:01;2.60;1.00
285;DHT22;127;48.770;9.212;2022-12-05T03:42:33;2.70;1.00
285;DHT22;127;48.770;9.212;2022-12-05T03:45:07;2.70;1.00
285;DHT22;127;48.770;9.212;2022-12-05T03:47:47;2.60;1.00
285;DHT22;127;48.770;9.212;2022-12-05T03:50:19;2.60;1.00
285;DHT22;127;48.770;9.212;2022-12-05T03:52:54;2.70;1.00
285;DHT22;127;48.770;9.212;2022-12-05T03:55:26;2.70;1.00
285;DHT22;127;48.770;9.212;2022-12-05T03:57:58;2.70;1.00
285;DHT22;127;48.770;9.212;2022-12-05T04:00:31;2.80;1.00
285;DHT22;127;48.770;9.212;2022-12-05T04:03:07;2.90;1.00
285;DHT22;127;48.770;9.212;2022-12-05T04:05:41;2.90;1.00
285;DHT22;127;48.770;9.212;2022-12-05T04:08:16;3.00;1.00
285;DHT22;127;48.770;9.212;2022-12-05T04:10:49;3.00;1.00
285;DHT22;127;48.770;9.212;2022-12-05T04:13:23;3.00;1.00
285;DHT22;127;48.770;9.212;2022-12-05T04:15:58;3.10;1.00
285;DHT22;127;48.770;9.212;2022-12-05T04:18:57;3.20;1.00
285;DHT22;127;48.770;9.212;2022-12-05T04:21:32;3.20;99.90
285;DHT22;127;48.770;9.212;2022-12-05T04:24:07;3.10;99.90
285;DHT22;127;48.770;9.212;2022-12-05T04:26:59;3.20;99.90
285;DHT22;127;48.770;9.212;2022-12-05T04:29:36;2.80;99.90
285;DHT22;127;48.770;9.212;2022-12-05T04:32:08;2.80;99.90
285;DHT22;127;48.770;9.212;2022-12-05T04:34:46;2.90;99.90
285;DHT22;127;48.770;9.212;2022-12-05T04:37:22;2.80;99.90
285;DHT22;127;48.770;9.212;2022-12-05T04:39:54;2.70;1.00
285;DHT22;127;48.770;9.212;2022-12-05T04:42:26;2.80;1.00
285;DHT22;127;48.770;9.212;2022-12-05T04:44:58;2.90;1.00
285;DHT22;127;48.770;9.212;2022-12-05T04:47:34;2.90;1.00
285;DHT22;127;48.770;9.212;2022-12-05T04:50:10;2.70;1.00
285;DHT22;127;48.770;9.212;2022-12-05T04:52:42;2.60;1.00
285;DHT22;127;48.770;9.212;2022-12-05T04:55:15;2.70;1.00
285;DHT22;127;48.770;9.212;2022-12-05T04:57:48;2.80;1.00
285;DHT22;127;48.770;9.212;2022-12-05T05:00:20;3.00;1.00
285;DHT22;127;48.770;9.212;2022-12-05T05:02:53;3.10;1.00
285;DHT22;127;48.770;9.212;2022-12-05T05:05:27;2.90;1.00
285;DHT22;127;48.770;9.212;2022-12-05T05:07:56;2.70;1.00
285;DHT22;127;48.770;9.212;2022-12-05T05:10:32;2.60;1.00
285;DHT22;127;48.770;9.212;2022-12-05T05:13:05;2.50;1.00
285;DHT22;127;48.770;9.212;2022-12-05T05:15:34;2.40;1.00
285;DHT22;127;48.770;9.212;2022-12-05T05:18:03;2.40;1.00
285;DHT22;127;48.770;9.212;2022-12-05T05:20:34;2.40;1.00
285;DHT22;127;48.770;9.212;2022-12-05T05:23:03;2.30;1.00
285;DHT22;127;48.770;9.212;2022-12-05T05:25:32;2.30;1.00
285;DHT22;127;48.770;9.212;2022-12-05T05:28:03;2.30;1.00
285;DHT22;127;48.770;9.212;2022-12-05T05:30:34;2.30;1.00
285;DHT22;127;48.770;9.212;2022-12-05T05:33:03;2.30;1.00
285;DHT22;127;48.770;9.212;2022-12-05T05:35:35;2.30;1.00
285;DHT22;127;48.770;9.212;2022-12-05T05:38:08;2.40;1.00
285;DHT22;127;48.770;9.212;2022-12-05T05:40:36;2.50;1.00
285;DHT22;127;48.770;9.212;2022-12-05T05:43:06;2.50;1.00
285;DHT22;127;48.770;9.212;2022-12-05T05:45:39;2.50;1.00
285;DHT22;127;48.770;9.212;2022-12-05T05:48:08;2.70;1.00
285;DHT22;127;48.770;9.212;2022-12-05T05:50:40;2.70;1.00
285;DHT22;127;48.770;9.212;2022-12-05T05:53:08;2.70;1.00
285;DHT22;127;48.770;9.212;2022-12-05T05:55:38;2.80;1.00
285;DHT22;127;48.770;9.212;2022-12-05T05:58:08;2.90;1.00
285;DHT22;127;48.770;9.212;2022-12-05T06:00:36;3.00;1.00
285;DHT22;127;48.770;9.212;2022-12-05T06:03:05;2.90;1.00
285;DHT22;127;48.770;9.212;2022-12-05T06:05:34;3.00;1.00
285;DHT22;127;48.770;9.212;2022-12-05T06:08:05;3.10;1.00
285;DHT22;127;48.770;9.212;2022-12-05T06:10:34;3.10;1.00
285;DHT22;127;48.770;9.212;2022-12-05T06:13:08;2.90;1.00
285;DHT22;127;48.770;9.212;2022-12-05T06:15:37;2.80;1.00
285;DHT22;127;48.770;9.212;2022-12-05T06:18:08;2.80;1.00
285;DHT22;127;48.770;9.212;2022-12-05T06:20:37;2.70;1.00
285;DHT22;127;48.770;9.212;2022-12-05T06:23:10;2.70;1.00
285;DHT22;127;48.770;9.212;2022-12-05T06:25:50;2.80;1.00
285;DHT22;127;48.770;9.212;2022-12-05T06:28:21;2.60;1.00
285;DHT22;127;48.770;9.212;2022-12-05T06:30:50;2.50;1.00
285;DHT22;127;48.770;9.212;2022-12-05T06:33:19;2.30;1.00
285;DHT22;127;48.770;9.212;2022-12-05T06:36:03;2.30;1.00
285;DHT22;127;48.770;9.212;2022-12-05T06:38:35;2.30;1.00
285;DHT22;127;48.770;9.212;2022-12-05T06:41:05;2.40;1.00
285;DHT22;127;48.770;9.212;2022-12-05T06:43:37;2.50;1.00
285;DHT22;127;48.770;9.212;2022-12-05T06:46:06;2.60;1.00
285;DHT22;127;48.770;9.212;2022-12-05T06:48:35;2.70;1.00
285;DHT22;127;48.770;9.212;2022-12-05T06:51:08;2.80;1.00
285;DHT22;127;48.770;9.212;2022-12-05T06:53:39;2.80;1.00
285;DHT22;127;48.770;9.212;2022-12-05T06:56:11;3.00;1.00
285;DHT22;127;48.770;9.212;2022-12-05T06:58:40;3.10;1.00
285;DHT22;127;48.770;9.212;2022-12-05T07:01:11;3.20;1.00
285;DHT22;127;48.770;9.212;2022-12-05T07:03:52;3.30;1.00
285;DHT22;127;48.770;9.212;2022-12-05T07:06:20;3.00;1.00
285;DHT22;127;48.770;9.212;2022-12-05T07:08:52;2.90;1.00
285;DHT22;127;48.770;9.212;2022-12-05T07:11:21;3.10;1.00
285;DHT22;127;48.770;9.212;2022-12-05T07:13:49;3.20;1.00
285;DHT22;127;48.770;9.212;2022-12-05T07:16:18;3.20;1.00
285;DHT22;127;48.770;9.212;2022-12-05T07:18:47;3.00;1.00
285;DHT22;127;48.770;9.212;2022-12-05T07:21:16;2.90;1.00
285;DHT22;127;48.770;9.212;2022-12-05T07:23:47;2.90;1.00
285;DHT22;127;48.770;9.212;2022-12-05T07:26:19;3.00;1.00
285;DHT22;127;48.770;9.212;2022-12-05T07:28:49;3.20;1.00
285;DHT22;127;48.770;9.212;2022-12-05T07:31:19;3.30;1.00
285;DHT22;127;48.770;9.212;2022-12-05T07:33:50;3.40;1.00
285;DHT22;127;48.770;9.212;2022-12-05T07:36:21;3.50;1.00
285;DHT22;127;48.770;9.212;2022-12-05T07:38:54;3.60;1.00
285;DHT22;127;48.770;9.212;2022-12-05T07:41:27;3.70;99.90
285;DHT22;127;48.770;9.212;2022-12-05T07:43:57;3.80;99.90
285;DHT22;127;48.770;9.212;2022-12-05T07:46:27;3.80;99.90
285;DHT22;127;48.770;9.212;2022-12-05T07:48:56;4.00;99.90
285;DHT22;127;48.770;9.212;2022-12-05T07:51:26;4.10;99.90
285;DHT22;127;48.770;9.212;2022-12-05T07:53:57;4.10;99.90
285;DHT22;127;48.770;9.212;2022-12-05T07:56:28;4.00;99.90
285;DHT22;127;48.770;9.212;2022-12-05T07:58:57;4.10;99.90
285;DHT22;127;48.770;9.212;2022-12-05T08:01:27;3.90;99.90
285;DHT22;127;48.770;9.212;2022-12-05T08:03:57;3.80;99.90
285;DHT22;127;48.770;9.212;2022-12-05T08:06:28;3.90;99.90
285;DHT22;127;48.770;9.212;2022-12-05T08:09:00;3.90;99.90
285;DHT22;127;48.770;9.212;2022-12-05T08:11:36;4.10;99.90
285;DHT22;127;48.770;9.212;2022-12-05T08:14:17;4.40;99.90
285;DHT22;127;48.770;9.212;2022-12-05T08:20:20;4.70;99.90
285;DHT22;127;48.770;9.212;2022-12-05T08:22:52;4.90;99.90
285;DHT22;127;48.770;9.212;2022-12-05T08:25:21;4.90;99.90
285;DHT22;127;48.770;9.212;2022-12-05T08:27:52;4.80;99.90
285;DHT22;127;48.770;9.212;2022-12-05T08:30:24;4.70;99.90
285;DHT22;127;48.770;9.212;2022-12-05T08:32:53;4.60;99.90
285;DHT22;127;48.770;9.212;2022-12-05T08:35:27;4.60;99.90
285;DHT22;127;48.770;9.212;2022-12-05T08:37:58;4.50;99.90
285;DHT22;127;48.770;9.212;2022-12-05T08:40:27;4.50;99.90
285;DHT22;127;48.770;9.212;2022-12-05T08:42:59;4.40;99.90
285;DHT22;127;48.770;9.212;2022-12-05T08:45:30;4.40;99.90
285;DHT22;127;48.770;9.212;2022-12-05T08:48:01;4.60;99.90
285;DHT22;127;48.770;9.212;2022-12-05T08:50:29;4.60;99.90
285;DHT22;127;48.770;9.212;2022-12-05T08:52:58;4.70;99.90
285;DHT22;127;48.770;9.212;2022-12-05T08:55:27;4.50;99.90
285;DHT22;127;48.770;9.212;2022-12-05T08:57:55;4.50;99.90
285;DHT22;127;48.770;9.212;2022-12-05T09:00:27;4.60;99.90
285;DHT22;127;48.770;9.212;2022-12-05T09:02:56;4.70;99.90
285;DHT22;127;48.770;9.212;2022-12-05T09:05:25;4.80;99.90
285;DHT22;127;48.770;9.212;2022-12-05T09:07:54;5.00;99.90
285;DHT22;127;48.770;9.212;2022-12-05T09:10:24;5.20;99.90
285;DHT22;127;48.770;9.212;2022-12-05T09:12:53;5.30;99.90
285;DHT22;127;48.770;9.212;2022-12-05T09:15:22;5.50;99.90
285;DHT22;127;48.770;9.212;2022-12-05T09:17:53;5.50;99.90
285;DHT22;127;48.770;9.212;2022-12-05T09:20:21;5.20;99.90
285;DHT22;127;48.770;9.212;2022-12-05T09:22:52;5.10;99.90
285;DHT22;127;48.770;9.212;2022-12-05T09:25:21;5.10;99.90
285;DHT22;127;48.770;9.212;2022-12-05T09:27:50;4.90;99.90
285;DHT22;127;48.770;9.212;2022-12-05T09:30:19;5.10;99.90
285;DHT22;127;48.770;9.212;2022-12-05T09:32:48;5.10;99.90
285;DHT22;127;48.770;9.212;2022-12-05T09:35:19;5.10;99.90
285;DHT22;127;48.770;9.212;2022-12-05T09:37:48;5.40;99.90
285;DHT22;127;48.770;9.212;2022-12-05T09:40:17;5.60;99.90
285;DHT22;127;48.770;9.212;2022-12-05T09:42:58;5.50;99.90
285;DHT22;127;48.770;9.212;2022-12-05T09:45:34;5.60;99.90
285;DHT22;127;48.770;9.212;2022-12-05T09:48:06;5.60;99.90
285;DHT22;127;48.770;9.212;2022-12-05T09:50:44;5.50;99.90
285;DHT22;127;48.770;9.212;2022-12-05T09:53:23;5.40;99.90
285;DHT22;127;48.770;9.212;2022-12-05T09:55:59;5.40;99.90
285;DHT22;127;48.770;9.212;2022-12-05T09:58:42;5.10;99.90
285;DHT22;127;48.770;9.212;2022-12-05T10:01:28;5.10;99.90
285;DHT22;127;48.770;9.212;2022-12-05T10:04:09;5.10;99.90
285;DHT22;127;48.770;9.212;2022-12-05T10:06:49;5.10;99.90
285;DHT22;127;48.770;9.212;2022-12-05T10:09:35;5.20;99.90
285;DHT22;127;48.770;9.212;2022-12-05T10:12:14;5.20;99.90
285;DHT22;127;48.770;9.212;2022-12-05T10:14:51;5.30;99.90
285;DHT22;127;48.770;9.212;2022-12-05T10:17:26;5.50;99.90
285;DHT22;127;48.770;9.212;2022-12-05T10:19:59;5.30;99.90
285;DHT22;127;48.770;9.212;2022-12-05T10:22:40;5.40;99.90
285;DHT22;127;48.770;9.212;2022-12-05T10:25:13;5.50;99.90
285;DHT22;127;48.770;9.212;2022-12-05T10:27:47;5.60;99.90
285;DHT22;127;48.770;9.212;2022-12-05T10:30:18;5.70;99.90
285;DHT22;127;48.770;9.212;2022-12-05T10:32:53;5.80;99.90
285;DHT22;127;48.770;9.212;2022-12-05T10:35:24;6.00;99.90
285;DHT22;127;48.770;9.212;2022-12-05T10:37:57;6.20;99.90
285;DHT22;127;48.770;9.212;2022-12-05T10:40:29;6.50;99.90
285;DHT22;127;48.770;9.212;2022-12-05T10:43:00;6.70;99.90
285;DHT22;127;48.770;9.212;2022-12-05T10:45:29;6.90;99.90
285;DHT22;127;48.770;9.212;2022-12-05T10:47:59;7.10;99.90
285;DHT22;127;48.770;9.212;2022-12-05T10:50:29;7.30;99.90
285;DHT22;127;48.770;9.212;2022-12-05T10:53:04;7.50;99.90
285;DHT22;127;48.770;9.212;2022-12-05T10:55:35;7.50;99.90
285;DHT22;127;48.770;9.212;2022-12-05T10:58:10;7.70;99.90
285;DHT22;127;48.770;9.212;2022-12-05T11:00:39;7.90;99.90
285;DHT22;127;48.770;9.212;2022-12-05T11:03:23;7.80;99.90
285;DHT22;127;48.770;9.212;2022-12-05T11:05:54;7.90;99.90
285;DHT22;127;48.770;9.212;2022-12-05T11:08:27;7.90;99.90
285;DHT22;127;48.770;9.212;2022-12-05T11:11:01;7.50;99.90
285;DHT22;127;48.770;9.212;2022-12-05T11:13:32;7.70;99.90
285;DHT22;127;48.770;9.212;2022-12-05T11:16:01;8.00;99.90
285;DHT22;127;48.770;9.212;2022-12-05T11:18:31;7.80;99.90
285;DHT22;127;48.770;9.212;2022-12-05T11:21:09;7.80;99.90
285;DHT22;127;48.770;9.212;2022-12-05T11:23:41;7.60;99.90
285;DHT22;127;48.770;9.212;2022-12-05T11:26:17;7.50;99.90
285;DHT22;127;48.770;9.212;2022-12-05T11:28:47;7.50;99.90
285;DHT22;127;48.770;9.212;2022-12-05T11:31:24;7.40;99.90
285;DHT22;127;48.770;9.212;2022-12-05T11:34:01;8.00;99.90
285;DHT22;127;48.770;9.212;2022-12-05T11:36:36;8.70;99.90
285;DHT22;127;48.770;9.212;2022-12-05T11:39:11;9.30;99.90
285;DHT22;127;48.770;9.212;2022-12-05T11:41:54;9.60;99.90
285;DHT22;127;48.770;9.212;2022-12-05T11:44:38;9.70;99.90
285;DHT22;127;48.770;9.212;2022-12-05T11:47:18;10.00;99.90
285;DHT22;127;48.770;9.212;2022-12-05T11:50:04;10.20;99.90
285;DHT22;127;48.770;9.212;2022-12-05T11:52:53;10.70;99.90
285;DHT22;127;48.770;9.212;2022-12-05T11:55:29;10.70;99.90
285;DHT22;127;48.770;9.212;2022-12-05T11:58:20;10.80;99.90
285;DHT22;127;48.770;9.212;2022-12-05T12:07:10;10.60;99.90
285;DHT22;127;48.770;9.212;2022-12-05T12:12:54;10.20;99.90
285;DHT22;127;48.770;9.212;2022-12-05T12:15:39;9.80;99.90
285;DHT22;127;48.770;9.212;2022-12-05T12:18:20;9.50;99.90
285;DHT22;127;48.770;9.212;2022-12-05T12:21:00;9.30;99.90
285;DHT22;127;48.770;9.212;2022-12-05T12:23:42;8.60;99.90
285;DHT22;127;48.770;9.212;2022-12-05T12:26:14;8.50;99.90
285;DHT22;127;48.770;9.212;2022-12-05T12:28:58;8.40;99.90
285;DHT22;127;48.770;9.212;2022-12-05T12:31:40;8.40;99.90
285;DHT22;127;48.770;9.212;2022-12-05T12:34:44;8.50;99.90
285;DHT22;127;48.770;9.212;2022-12-05T12:37:25;8.50;99.90
285;DHT22;127;48.770;9.212;2022-12-05T12:39:59;8.50;99.90
285;DHT22;127;48.770;9.212;2022-12-05T12:42:37;8.60;99.90
285;DHT22;127;48.770;9.212;2022-12-05T12:45:36;8.40;99.90
285;DHT22;127;48.770;9.212;2022-12-05T12:48:14;8.50;99.90
285;DHT22;127;48.770;9.212;2022-12-05T12:50:50;8.60;99.90
285;DHT22;127;48.770;9.212;2022-12-05T12:53:33;8.30;99.90
285;DHT22;127;48.770;9.212;2022-12-05T12:56:12;8.30;99.90
285;DHT22;127;48.770;9.212;2022-12-05T12:58:50;8.50;99.90
285;DHT22;127;48.770;9.212;2022-12-05T13:01:31;8.50;99.90
285;DHT22;127;48.770;9.212;2022-12-05T13:04:04;8.60;99.90
285;DHT22;127;48.770;9.212;2022-12-05T13:06:43;8.50;99.90
285;DHT22;127;48.770;9.212;2022-12-05T13:09:16;8.50;99.90
285;DHT22;127;48.770;9.212;2022-12-05T13:11:47;8.60;99.90
285;DHT22;127;48.770;9.212;2022-12-05T13:14:19;8.60;99.90
285;DHT22;127;48.770;9.212;2022-12-05T13:16:55;8.10;99.90
285;DHT22;127;48.770;9.212;2022-12-05T13:19:28;8.10;99.90
285;DHT22;127;48.770;9.212;2022-12-05T13:22:03;8.00;99.90
285;DHT22;127;48.770;9.212;2022-12-05T13:24:34;8.10;99.90
285;DHT22;127;48.770;9.212;2022-12-05T13:27:05;8.10;99.90
285;DHT22;127;48.770;9.212;2022-12-05T13:29:37;8.00;99.90
285;DHT22;127;48.770;9.212;2022-12-05T13:32:28;8.00;99.90
285;DHT22;127;48.770;9.212;2022-12-05T13:34:59;8.10;99.90
285;DHT22;127;48.770;9.212;2022-12-05T13:37:30;7.80;99.90
285;DHT22;127;48.770;9.212;2022-12-05T13:40:24;7.80;99.90
285;DHT22;127;48.770;9.212;2022-12-05T13:43:06;7.70;99.90
285;DHT22;127;48.770;9.212;2022-12-05T13:45:38;7.50;99.90
285;DHT22;127;48.770;9.212;2022-12-05T13:48:20;7.30;99.90
285;DHT22;127;48.770;9.212;2022-12-05T13:50:53;7.20;99.90
285;DHT22;127;48.770;9.212;2022-12-05T13:53:29;6.80;99.90
285;DHT22;127;48.770;9.212;2022-12-05T13:56:02;6.70;99.90
285;DHT22;127;48.770;9.212;2022-12-05T13:58:48;6.70;99.90
285;DHT22;127;48.770;9.212;2022-12-05T14:01:45;7.10;99.90
285;DHT22;127;48.770;9.212;2022-12-05T14:04:48;7.50;99.90
285;DHT22;127;48.770;9.212;2022-12-05T14:07:47;8.20;99.90
285;DHT22;127;48.770;9.212;2022-12-05T14:10:20;8.60;99.90
285;DHT22;127;48.770;9.212;2022-12-05T14:12:54;9.40;99.90
285;DHT22;127;48.770;9.212;2022-12-05T14:15:32;9.90;99.90
285;DHT22;127;48.770;9.212;2022-12-05T14:18:08;10.50;99.90
285;DHT22;127;48.770;9.212;2022-12-05T14:21:02;10.70;99.90
285;DHT22;127;48.770;9.212;2022-12-05T14:26:56;9.80;99.90
285;DHT22;127;48.770;9.212;2022-12-05T14:29:47;8.90;99.90
285;DHT22;127;48.770;9.212;2022-12-05T14:32:27;8.70;99.90
285;DHT22;127;48.770;9.212;2022-12-05T14:35:03;7.80;99.90
285;DHT22;127;48.770;9.212;2022-12-05T14:37:42;7.70;99.90
285;DHT22;127;48.770;9.212;2022-12-05T14:40:25;7.60;99.90
285;DHT22;127;48.770;9.212;2022-12-05T14:42:57;7.50;99.90
285;DHT22;127;48.770;9.212;2022-12-05T14:45:30;7.20;99.90
285;DHT22;127;48.770;9.212;2022-12-05T14:48:02;7.00;99.90
285;DHT22;127;48.770;9.212;2022-12-05T14:50:41;7.10;99.90
285;DHT22;127;48.770;9.212;2022-12-05T14:53:21;7.10;99.90
285;DHT22;127;48.770;9.212;2022-12-05T14:55:53;7.00;99.90
285;DHT22;127;48.770;9.212;2022-12-05T14:58:34;7.00;99.90
285;DHT22;127;48.770;9.212;2022-12-05T15:01:28;7.00;99.90
285;DHT22;127;48.770;9.212;2022-12-05T15:04:07;6.70;99.90
285;DHT22;127;48.770;9.212;2022-12-05T15:06:43;6.60;99.90
285;DHT22;127;48.770;9.212;2022-12-05T15:09:39;6.60;99.90
285;DHT22;127;48.770;9.212;2022-12-05T15:12:14;6.60;99.90
285;DHT22;127;48.770;9.212;2022-12-05T15:14:48;6.30;99.90
285;DHT22;127;48.770;9.212;2022-12-05T15:17:42;6.30;99.90
285;DHT22;127;48.770;9.212;2022-12-05T15:20:16;6.00;99.90
285;DHT22;127;48.770;9.212;2022-12-05T15:22:46;5.90;99.90
285;DHT22;127;48.770;9.212;2022-12-05T15:25:27;5.70;99.90
285;DHT22;127;48.770;9.212;2022-12-05T15:27:59;5.60;99.90
285;DHT22;127;48.770;9.212;2022-12-05T15:30:28;5.60;99.90
285;DHT22;127;48.770;9.212;2022-12-05T15:32:58;5.40;99.90
285;DHT22;127;48.770;9.212;2022-12-05T15:35:30;5.30;99.90
285;DHT22;127;48.770;9.212;2022-12-05T15:38:04;5.20;99.90
285;DHT22;127;48.770;9.212;2022-12-05T15:40:36;5.10;99.90
285;DHT22;127;48.770;9.212;2022-12-05T15:43:25;5.10;99.90
285;DHT22;127;48.770;9.212;2022-12-05T15:46:22;5.00;99.90
285;DHT22;127;48.770;9.212;2022-12-05T15:48:57;5.00;99.90
285;DHT22;127;48.770;9.212;2022-12-05T15:51:30;4.80;99.90
285;DHT22;127;48.770;9.212;2022-12-05T15:54:06;4.70;99.90
285;DHT22;127;48.770;9.212;2022-12-05T15:56:44;4.70;99.90
285;DHT22;127;48.770;9.212;2022-12-05T15:59:21;4.60;99.90
285;DHT22;127;48.770;9.212;2022-12-05T16:01:56;4.50;99.90
285;DHT22;127;48.770;9.212;2022-12-05T16:04:29;4.50;99.90
285;DHT22;127;48.770;9.212;2022-12-05T16:07:05;4.40;99.90
285;DHT22;127;48.770;9.212;2022-12-05T16:09:38;4.30;99.90
285;DHT22;127;48.770;9.212;2022-12-05T16:12:23;4.30;99.90
285;DHT22;127;48.770;9.212;2022-12-05T16:14:55;4.20;99.90
285;DHT22;127;48.770;9.212;2022-12-05T16:17:38;4.20;1.00
285;DHT22;127;48.770;9.212;2022-12-05T16:20:19;4.30;1.00
285;DHT22;127;48.770;9.212;2022-12-05T16:22:50;4.30;1.00
285;DHT22;127;48.770;9.212;2022-12-05T16:25:22;4.30;1.00
285;DHT22;127;48.770;9.212;2022-12-05T16:27:59;4.20;1.00
285;DHT22;127;48.770;9.212;2022-12-05T16:30:29;4.30;1.00
285;DHT22;127;48.770;9.212;2022-12-05T16:33:09;4.20;1.00
285;DHT22;127;48.770;9.212;2022-12-05T16:35:44;4.30;1.00
285;DHT22;127;48.770;9.212;2022-12-05T16:38:17;4.30;1.00
285;DHT22;127;48.770;9.212;2022-12-05T16:40:53;4.40;1.00
285;DHT22;127;48.770;9.212;2022-12-05T16:43:44;4.50;1.00
285;DHT22;127;48.770;9.212;2022-12-05T16:46:40;4.50;1.00
285;DHT22;127;48.770;9.212;2022-12-05T16:49:30;4.50;1.00
285;DHT22;127;48.770;9.212;2022-12-05T16:52:02;4.60;1.00
285;DHT22;127;48.770;9.212;2022-12-05T16:54:32;4.70;1.00
285;DHT22;127;48.770;9.212;2022-12-05T16:57:01;4.60;1.00
285;DHT22;127;48.770;9.212;2022-12-05T16:59:36;4.60;1.00
285;DHT22;127;48.770;9.212;2022-12-05T17:02:10;4.60;1.00
285;DHT22;127;48.770;9.212;2022-12-05T17:04:40;4.60;1.00
285;DHT22;127;48.770;9.212;2022-12-05T17:07:10;4.70;1.00
285;DHT22;127;48.770;9.212;2022-12-05T17:09:43;4.80;1.00
285;DHT22;127;48.770;9.212;2022-12-05T17:12:17;4.70;1.00
285;DHT22;127;48.770;9.212;2022-12-05T17:14:51;4.60;99.90
285;DHT22;127;48.770;9.212;2022-12-05T17:17:24;4.50;1.00
285;DHT22;127;48.770;9.212;2022-12-05T17:19:53;4.50;1.00
285;DHT22;127;48.770;9.212;2022-12-05T17:22:22;4.60;1.00
285;DHT22;127;48.770;9.212;2022-12-05T17:24:52;4.70;1.00
285;DHT22;127;48.770;9.212;2022-12-05T17:27:30;4.70;1.00
285;DHT22;127;48.770;9.212;2022-12-05T17:30:01;4.80;1.00
285;DHT22;127;48.770;9.212;2022-12-05T17:32:31;4.80;99.90
285;DHT22;127;48.770;9.212;2022-12-05T17:35:14;4.70;99.90
285;DHT22;127;48.770;9.212;2022-12-05T17:37:43;4.70;99.90
285;DHT22;127;48.770;9.212;2022-12-05T17:40:12;4.90;1.00
285;DHT22;127;48.770;9.212;2022-12-05T17:42:42;4.80;99.90
285;DHT22;127;48.770;9.212;2022-12-05T17:45:16;4.70;99.90
285;DHT22;127;48.770;9.212;2022-12-05T17:47:45;4.60;99.90
285;DHT22;127;48.770;9.212;2022-12-05T17:50:15;4.60;1.00
285;DHT22;127;48.770;9.212;2022-12-05T17:52:46;4.70;1.00
285;DHT22;127;48.770;9.212;2022-12-05T17:55:17;4.80;1.00
285;DHT22;127;48.770;9.212;2022-12-05T17:57:47;4.70;99.90
285;DHT22;127;48.770;9.212;2022-12-05T18:00:21;4.90;99.90
285;DHT22;127;48.770;9.212;2022-12-05T18:02:52;4.90;99.90
285;DHT22;127;48.770;9.212;2022-12-05T18:05:22;4.80;99.90
285;DHT22;127;48.770;9.212;2022-12-05T18:07:51;4.70;99.90
285;DHT22;127;48.770;9.212;2022-12-05T18:10:21;4.70;99.90